Saint Louis, Missouri
Traffic Map
Current Weather Conditions
Saint Louis, Missouri
Clear
Clear
15°
Feels Like: 15°
Wind Chill: 15° Ceiling: Unl
Heat Index: 15° Visibility: 10mi
Dew Point: Wind: 9mph
Humidity: 49% Direction: 170° (S)
Pressure: 30.08in Gusts: 0mph
Raw Report DataKCPS 301753Z 17008KT 10SM CLR 15/04 A3008 RMK AO2 SLP187 60000 T01500044 10150 20017 58022
Traffic Incident Summary
Active as of:
Severity:
Category:
InformationThere was an issue retrieving the traffic information for this location. Please try a different location or try again shortly.
Advertisements
Track Severe Weather on mobile